Aérodrome :
LOGIN :

S'inscrire | Disclaimer

   EN    FR    IT 

 










Légende :    VFR   VFR Marginal   IFR   IFR Intensif   IFR Très Intensif
Visi : 
Plafond : 
>= 8 km
>= 3000ft
5 à 8 km
1000 à 3000 ft
1500m à 5 km
500 à 1000 ft
800 à 1500m
200 à 500 ft
< 800m
< 200 ft
Symboles :   Orages  Brouillard  Fortes neiges  Fortes précipitations  Vent > 20 kt
SIGMETs :   Divers  Orages  Givrage  Turbulence  Onde Orograph.  Cendres Volcan.







- Altitude de l'aérodrome : 228 ft
- Code IATA : OPO


LPPR - Porto Fr. Sa Carneiro

DERNIER METAR :
  • 280800Z 09015KT CAVOK 12/M04 Q1014

METARs EXPIRÉS :
  • 280730Z 10014KT CAVOK 11/M05 Q1014
  • 280700Z 10015KT CAVOK 10/M05 Q1014
  • 280630Z 10011G21KT CAVOK 10/M05 Q1014
  • 280600Z 10013KT 080V140 CAVOK 10/M05 Q1013
  • 280530Z 09011KT CAVOK 10/M05 Q1013
  • 280500Z 09010KT CAVOK 10/M05 Q1013

TAF TAF LPPR
Valide du 28 à 06h jusqu'au 29 à 06h UTC


280500Z 2806/2906 08010KT CAVOK
BECMG 2812/2815 33012KT
BECMG 2818/2821 VRB03KT
Pas de NOTAMs connus pour ce terrain.



MET'MAP, la Météo Aéronautique d'un coup d'oeil ! - Copyright ORBIFLY Décembre 2007 - Disclaimer

ORBIFLY MET'MAP TEAM :

Programmation & Développement : Alexandra Zaïnal
Conception & Développement : Baudouin d'Aumeries
Co-Programmation & Développement : Marc-Olivier Méhu
Soutien technique & logistique : Manuel Goepfert

Contact : metmap@orbifly.com




SOURCES & CREDITS :

   NOAA